Time;durP1;ratioP1;P1;durP2;ratioP2;P2;SDS_P1;SDS_P2;PMS_P1;PMS_P2;Temp;Humidity;BMP_temperature;BMP_pressure;BME280_temperature;BME280_humidity;BME280_pressure;Samples;Min_cycle;Max_cycle;Signal;HPM_P1;HPM_P2
2024/01/16 00:01:17;;;;;;;;;;;;;;;-0.80;100.00;95847.30;110202;1241;60543;-70
2024/01/16 00:03:48;;;;;;;;;;;;;;;-0.80;100.00;95837.72;110368;1240;72144;-70
2024/01/16 00:06:18;;;;;;;;;;;;;;;-0.80;100.00;95834.29;110342;1242;69479;-70
2024/01/16 00:08:50;;;;;;;;;;;;;;;-0.89;100.00;95822.29;110394;1242;69339;-70
2024/01/16 00:11:21;;;;;;;;;;;;;;;-0.90;100.00;95817.70;110393;1242;60506;-70
2024/01/16 00:13:53;;;;;;;;;;;;;;;-0.89;100.00;95814.95;110438;1243;60511;-71
2024/01/16 00:16:24;;;;;;;;;;;;;;;-0.85;100.00;95827.05;110354;1242;72146;-70
2024/01/16 00:18:54;;;;;;;;;;;;;;;-0.95;100.00;95844.30;110401;1239;69359;-72
2024/01/16 00:21:25;;;;;;;;;;;;;;;-0.93;100.00;95845.77;110381;1238;69147;-70
2024/01/16 00:23:56;;;;;;;;;;;;;;;-0.87;100.00;95843.23;110438;1242;60599;-71
2024/01/16 00:26:27;;;;;;;;;;;;;;;-0.91;100.00;95835.88;110421;1241;60563;-70
2024/01/16 00:28:59;;;;;;;;;;;;;;;-0.88;100.00;95828.94;110375;1242;72215;-70
2024/01/16 00:31:30;;;;;;;;;;;;;;;-0.87;100.00;95847.30;110368;1242;69283;-70
2024/01/16 00:34:02;;;;;;;;;;;;;;;-0.82;100.00;95842.80;110343;1240;69125;-70
2024/01/16 00:36:33;;;;;;;;;;;;;;;-0.84;100.00;95843.73;110395;1242;60557;-71
2024/01/16 00:39:04;;;;;;;;;;;;;;;-0.90;100.00;95846.30;110463;1242;60497;-72
2024/01/16 00:41:35;;;;;;;;;;;;;;;-0.87;100.00;95846.99;110380;1241;71345;-70
2024/01/16 00:44:07;;;;;;;;;;;;;;;-0.89;100.00;95859.90;110521;1242;68302;-71
2024/01/16 00:46:38;;;;;;;;;;;;;;;-0.89;100.00;95862.32;110545;1241;69595;-70
2024/01/16 00:49:10;;;;;;;;;;;;;;;-0.90;100.00;95867.66;110474;1241;60547;-70
2024/01/16 00:51:41;;;;;;;;;;;;;;;-0.90;100.00;95871.09;110589;1241;60499;-73
2024/01/16 00:54:12;;;;;;;;;;;;;;;-0.93;100.00;95866.77;110496;1240;72153;-71
2024/01/16 00:56:42;;;;;;;;;;;;;;;-0.91;100.00;95874.04;110521;1238;68852;-71
2024/01/16 00:59:16;;;;;;;;;;;;;;;-0.92;100.00;95880.94;110426;1243;69497;-71
2024/01/16 01:01:46;;;;;;;;;;;;;;;-0.93;100.00;95879.79;110506;1242;60508;-71
2024/01/16 01:04:17;;;;;;;;;;;;;;;-0.92;100.00;95882.30;110412;1240;60542;-70
2024/01/16 01:06:50;;;;;;;;;;;;;;;-0.94;100.00;95875.92;110417;1242;72214;-70
2024/01/16 01:09:27;;;;;;;;;;;;;;;-0.94;100.00;95873.20;110459;1240;68496;-71
2024/01/16 01:12:03;;;;;;;;;;;;;;;-0.95;100.00;95871.34;110449;1241;68490;-71
2024/01/16 01:14:36;;;;;;;;;;;;;;;-0.96;100.00;95865.92;110457;1243;60481;-71
2024/01/16 01:17:07;;;;;;;;;;;;;;;-0.96;100.00;95871.43;110438;1238;60544;-72
2024/01/16 01:19:48;;;;;;;;;;;;;;;-0.97;100.00;95862.75;110525;1241;72224;-73
2024/01/16 01:22:19;;;;;;;;;;;;;;;-0.98;100.00;95862.42;110478;1242;69210;-71
2024/01/16 01:24:50;;;;;;;;;;;;;;;-0.99;100.00;95866.73;110539;1239;68490;-70
2024/01/16 01:27:20;;;;;;;;;;;;;;;-0.94;100.00;95869.41;110498;1241;60476;-72
2024/01/16 01:29:52;;;;;;;;;;;;;;;-0.92;100.00;95874.60;110501;1242;60931;-72
2024/01/16 01:32:26;;;;;;;;;;;;;;;-0.90;100.00;95870.92;110430;1242;72508;-72
2024/01/16 01:35:00;;;;;;;;;;;;;;;-0.89;100.00;95870.68;110375;1243;69089;-71
2024/01/16 01:37:33;;;;;;;;;;;;;;;-0.89;100.00;95863.98;110359;1243;69369;-71
2024/01/16 01:40:05;;;;;;;;;;;;;;;-0.88;100.00;95863.98;110332;1243;60527;-71
2024/01/16 01:42:36;;;;;;;;;;;;;;;-0.90;100.00;95861.65;110423;1242;60470;-71
2024/01/16 01:45:15;;;;;;;;;;;;;;;-0.93;100.00;95857.06;110522;1242;72266;-70
2024/01/16 01:47:46;;;;;;;;;;;;;;;-0.99;100.00;95864.70;110483;1242;68827;-71
2024/01/16 01:50:17;;;;;;;;;;;;;;;-1.02;100.00;95871.17;110504;1243;69115;-71
2024/01/16 01:52:53;;;;;;;;;;;;;;;-1.05;100.00;95873.21;110396;1242;60479;-71
2024/01/16 01:55:28;;;;;;;;;;;;;;;-1.14;100.00;95874.20;110423;1242;60485;-71
2024/01/16 01:58:04;;;;;;;;;;;;;;;-1.20;100.00;95879.78;110382;1242;72876;-71
2024/01/16 02:00:36;;;;;;;;;;;;;;;-1.23;100.00;95887.67;110448;1241;68579;-71
2024/01/16 02:03:13;;;;;;;;;;;;;;;-1.23;100.00;95890.39;110412;1242;68524;-71
2024/01/16 02:05:44;;;;;;;;;;;;;;;-1.27;100.00;95899.29;110635;1241;60605;-71
2024/01/16 02:08:15;;;;;;;;;;;;;;;-1.29;100.00;95902.12;110391;1243;60492;-71
2024/01/16 02:10:48;;;;;;;;;;;;;;;-1.26;100.00;95902.33;110428;1238;71558;-71
2024/01/16 02:13:23;;;;;;;;;;;;;;;-1.22;100.00;95896.98;110416;1240;67884;-70
2024/01/16 02:15:54;;;;;;;;;;;;;;;-1.15;100.00;95889.84;110413;1240;69479;-71
2024/01/16 02:18:26;;;;;;;;;;;;;;;-1.12;100.00;95887.43;110447;1242;60457;-71
2024/01/16 02:21:05;;;;;;;;;;;;;;;-1.09;100.00;95886.58;110531;1241;60556;-71
2024/01/16 02:23:37;;;;;;;;;;;;;;;-1.07;100.00;95889.56;110514;1240;71868;-71
2024/01/16 02:26:09;;;;;;;;;;;;;;;-1.04;100.00;95901.71;110453;1242;69238;-71
2024/01/16 02:28:43;;;;;;;;;;;;;;;-1.02;100.00;95913.11;110463;1241;68509;-71
2024/01/16 02:31:18;;;;;;;;;;;;;;;-0.97;100.00;95912.14;110500;1241;60467;-71
2024/01/16 02:33:58;;;;;;;;;;;;;;;-0.93;100.00;95921.01;110781;1242;60463;-71
2024/01/16 02:36:34;;;;;;;;;;;;;;;-0.89;100.00;95921.30;110959;1241;71486;-71
2024/01/16 02:39:09;;;;;;;;;;;;;;;-0.89;100.00;95919.41;110924;1240;69101;-71
2024/01/16 02:41:40;;;;;;;;;;;;;;;-0.86;100.00;95920.64;110581;1244;68349;-72
2024/01/16 02:44:11;;;;;;;;;;;;;;;-0.82;100.00;95922.48;111820;1240;59459;-72
2024/01/16 02:46:43;;;;;;;;;;;;;;;-0.78;100.00;95923.80;110675;1241;60534;-71
2024/01/16 02:49:20;;;;;;;;;;;;;;;-0.79;100.00;95932.11;110501;1242;71378;-71
2024/01/16 02:51:55;;;;;;;;;;;;;;;-0.80;100.00;95930.44;110472;1243;69120;-71
2024/01/16 02:54:30;;;;;;;;;;;;;;;-0.80;100.00;95925.33;110506;1242;68526;-72
2024/01/16 02:57:05;;;;;;;;;;;;;;;-0.79;100.00;95925.58;110560;1242;60449;-72
2024/01/16 02:59:38;;;;;;;;;;;;;;;-0.82;100.00;95935.15;110176;1252;60488;-71
2024/01/16 03:02:18;;;;;;;;;;;;;;;-0.84;100.00;95937.33;110392;1242;72087;-72
2024/01/16 03:04:52;;;;;;;;;;;;;;;-0.84;100.00;95941.44;110500;1241;69280;-72
2024/01/16 03:07:23;;;;;;;;;;;;;;;-0.88;100.00;95944.86;110384;1247;69200;-72
2024/01/16 03:09:53;;;;;;;;;;;;;;;-0.88;100.00;95932.71;110530;1241;60466;-71
2024/01/16 03:12:27;;;;;;;;;;;;;;;-0.80;100.00;95930.09;110606;1241;60427;-71
2024/01/16 03:15:04;;;;;;;;;;;;;;;-0.77;100.00;95933.52;110391;1241;72206;-71
2024/01/16 03:17:38;;;;;;;;;;;;;;;-0.74;100.00;95939.00;110469;1242;68279;-71
2024/01/16 03:20:09;;;;;;;;;;;;;;;-0.69;100.00;95947.83;110486;1243;69070;-71
2024/01/16 03:22:41;;;;;;;;;;;;;;;-0.64;100.00;95952.03;110439;1246;60511;-71
2024/01/16 03:25:14;;;;;;;;;;;;;;;-0.58;100.00;95952.90;110565;1241;60801;-71
2024/01/16 03:27:46;;;;;;;;;;;;;;;-0.57;100.00;95962.59;110459;1241;72264;-71
2024/01/16 03:30:23;;;;;;;;;;;;;;;-0.58;100.00;95982.02;110454;1241;69289;-71
2024/01/16 03:32:54;;;;;;;;;;;;;;;-0.58;100.00;95992.06;110453;1240;69324;-72
2024/01/16 03:35:29;;;;;;;;;;;;;;;-0.59;100.00;95994.02;110551;1242;60449;-70
2024/01/16 03:38:02;;;;;;;;;;;;;;;-0.61;100.00;96005.23;110436;1242;60489;-70
2024/01/16 03:40:36;;;;;;;;;;;;;;;-0.63;100.00;96007.77;110211;1246;71597;-71
2024/01/16 03:43:10;;;;;;;;;;;;;;;-0.68;100.00;96012.78;110544;1242;68377;-70
2024/01/16 03:45:40;;;;;;;;;;;;;;;-0.74;100.00;96011.07;110431;1241;69156;-70
2024/01/16 03:48:13;;;;;;;;;;;;;;;-0.81;100.00;96012.61;110398;1241;60555;-71
2024/01/16 03:50:47;;;;;;;;;;;;;;;-0.89;100.00;95998.82;110516;1243;60443;-72
2024/01/16 03:53:19;;;;;;;;;;;;;;;-0.97;100.00;95982.26;110371;1246;72305;-70
2024/01/16 03:55:55;;;;;;;;;;;;;;;-0.98;100.00;95977.52;110388;1241;68979;-71
2024/01/16 03:58:29;;;;;;;;;;;;;;;-0.90;100.00;95984.34;110366;1241;68719;-72
2024/01/16 04:01:02;;;;;;;;;;;;;;;-0.94;100.00;95985.20;110532;1241;60518;-71
2024/01/16 04:03:35;;;;;;;;;;;;;;;-0.99;100.00;95980.66;110400;1249;60847;-71
2024/01/16 04:06:16;;;;;;;;;;;;;;;-1.02;100.00;95968.33;110532;1242;72482;-71
2024/01/16 04:08:48;;;;;;;;;;;;;;;-1.10;100.00;95986.52;110425;1242;69765;-71
2024/01/16 04:11:18;;;;;;;;;;;;;;;-1.24;100.00;96003.41;110445;1242;69103;-71
2024/01/16 04:13:49;;;;;;;;;;;;;;;-1.34;100.00;96009.70;110446;1243;60459;-71
2024/01/16 04:16:20;;;;;;;;;;;;;;;-1.42;100.00;96011.96;110439;1242;60472;-72
2024/01/16 04:18:50;;;;;;;;;;;;;;;-1.51;100.00;96018.88;110505;1243;72167;-71
2024/01/16 04:21:21;;;;;;;;;;;;;;;-1.51;100.00;96026.23;110575;1241;69256;-72
2024/01/16 04:23:52;;;;;;;;;;;;;;;-1.54;100.00;96033.92;110404;1242;68163;-71
2024/01/16 04:26:24;;;;;;;;;;;;;;;-1.60;100.00;96036.58;110356;1242;60526;-71
2024/01/16 04:28:56;;;;;;;;;;;;;;;-1.63;100.00;96043.02;110338;1242;60456;-71
2024/01/16 04:31:26;;;;;;;;;;;;;;;-1.62;100.00;96044.53;110365;1242;72834;-71
2024/01/16 04:33:58;;;;;;;;;;;;;;;-1.59;100.00;96047.64;110459;1242;69309;-71
2024/01/16 04:36:28;;;;;;;;;;;;;;;-1.57;100.00;96051.28;110410;1241;69648;-71
2024/01/16 04:39:00;;;;;;;;;;;;;;;-1.56;100.00;96049.22;110355;1241;60550;-71
2024/01/16 04:41:30;;;;;;;;;;;;;;;-1.56;100.00;96044.26;110365;1242;60485;-71
2024/01/16 04:44:01;;;;;;;;;;;;;;;-1.56;100.00;96043.53;110394;1241;72068;-71
2024/01/16 04:46:31;;;;;;;;;;;;;;;-1.60;100.00;96046.27;110402;1242;69148;-71
2024/01/16 04:49:02;;;;;;;;;;;;;;;-1.60;100.00;96048.50;110500;1241;69166;-71
2024/01/16 04:51:33;;;;;;;;;;;;;;;-1.61;100.00;96057.46;110464;1241;60515;-71
2024/01/16 04:54:03;;;;;;;;;;;;;;;-1.62;100.00;96062.48;110513;1238;60538;-71
2024/01/16 04:56:33;;;;;;;;;;;;;;;-1.68;100.00;96071.63;110502;1242;72247;-71
2024/01/16 04:59:03;;;;;;;;;;;;;;;-1.71;100.00;96074.14;110605;1242;69201;-71
2024/01/16 05:01:33;;;;;;;;;;;;;;;-1.74;100.00;96076.52;110390;1242;69180;-71
2024/01/16 05:04:04;;;;;;;;;;;;;;;-1.76;100.00;96085.81;110391;1239;60499;-71
2024/01/16 05:06:34;;;;;;;;;;;;;;;-1.81;100.00;96098.16;110223;1245;60475;-71
2024/01/16 05:09:04;;;;;;;;;;;;;;;-1.85;100.00;96100.89;110386;1241;71770;-71
2024/01/16 05:11:36;;;;;;;;;;;;;;;-1.82;100.00;96107.95;110398;1238;69274;-71
2024/01/16 05:14:06;;;;;;;;;;;;;;;-1.85;100.00;96116.25;110404;1242;69248;-71
2024/01/16 05:16:36;;;;;;;;;;;;;;;-1.83;100.00;96123.02;110413;1243;60503;-71
2024/01/16 05:19:05;;;;;;;;;;;;;;;-1.81;100.00;96130.98;110507;1238;60499;-71
2024/01/16 05:21:35;;;;;;;;;;;;;;;-1.79;100.00;96133.94;110415;1241;72797;-72
2024/01/16 05:24:04;;;;;;;;;;;;;;;-1.78;100.00;96139.05;110387;1242;68422;-71
2024/01/16 05:26:34;;;;;;;;;;;;;;;-1.72;100.00;96145.08;110446;1242;68510;-71
2024/01/16 05:29:04;;;;;;;;;;;;;;;-1.69;100.00;96150.08;110403;1242;60560;-71
2024/01/16 05:31:39;;;;;;;;;;;;;;;-1.65;100.00;96150.04;110379;1242;60424;-71
2024/01/16 05:34:09;;;;;;;;;;;;;;;-1.65;100.00;96156.58;110421;1243;71630;-71
2024/01/16 05:36:39;;;;;;;;;;;;;;;-1.57;100.00;96158.05;110352;1242;68365;-71
2024/01/16 05:39:10;;;;;;;;;;;;;;;-1.51;100.00;96165.20;110431;1241;69303;-71
2024/01/16 05:41:40;;;;;;;;;;;;;;;-1.47;100.00;96167.90;110592;1239;60473;-71
2024/01/16 05:44:12;;;;;;;;;;;;;;;-1.46;100.00;96177.45;110491;1242;60497;-71
2024/01/16 05:46:43;;;;;;;;;;;;;;;-1.49;100.00;96183.16;110480;1242;72150;-71
2024/01/16 05:49:12;;;;;;;;;;;;;;;-1.48;100.00;96183.00;110506;1242;69110;-71
2024/01/16 05:51:43;;;;;;;;;;;;;;;-1.49;100.00;96187.47;110432;1242;69228;-71
2024/01/16 05:54:13;;;;;;;;;;;;;;;-1.56;100.00;96191.70;110534;1241;60476;-71
2024/01/16 05:56:42;;;;;;;;;;;;;;;-1.57;100.00;96191.75;110431;1244;60474;-71
2024/01/16 05:59:12;;;;;;;;;;;;;;;-1.51;100.00;96197.81;110512;1241;71418;-71
2024/01/16 06:01:44;;;;;;;;;;;;;;;-1.49;100.00;96206.59;110492;1242;69238;-70
2024/01/16 06:04:15;;;;;;;;;;;;;;;-1.47;100.00;96208.74;110459;1243;68511;-72
2024/01/16 06:06:46;;;;;;;;;;;;;;;-1.46;100.00;96215.55;110659;1244;60608;-75
2024/01/16 06:09:16;;;;;;;;;;;;;;;-1.46;100.00;96213.83;110476;1242;60454;-75
2024/01/16 06:11:45;;;;;;;;;;;;;;;-1.50;100.00;96223.58;110390;1241;71518;-75
2024/01/16 06:14:21;;;;;;;;;;;;;;;-1.48;100.00;96226.89;110364;1242;69494;-75
2024/01/16 06:16:51;;;;;;;;;;;;;;;-1.45;100.00;96230.50;110392;1242;68315;-75
2024/01/16 06:19:21;;;;;;;;;;;;;;;-1.46;100.00;96233.98;110371;1242;60531;-75
2024/01/16 06:21:51;;;;;;;;;;;;;;;-1.50;100.00;96238.94;110442;1242;60470;-66
2024/01/16 06:24:20;;;;;;;;;;;;;;;-1.47;100.00;96243.25;110363;1241;71170;-64
2024/01/16 06:26:49;;;;;;;;;;;;;;;-1.46;100.00;96249.21;110346;1242;69837;-66
2024/01/16 06:29:21;;;;;;;;;;;;;;;-1.45;100.00;96255.11;110377;1242;69243;-66
2024/01/16 06:32:02;;;;;;;;;;;;;;;-1.45;100.00;96262.48;110154;1245;60511;-66
2024/01/16 06:34:31;;;;;;;;;;;;;;;-1.41;100.00;96267.41;110166;1245;60440;-66
2024/01/16 06:37:01;;;;;;;;;;;;;;;-1.39;100.00;96271.29;110333;1240;72577;-65
2024/01/16 06:39:30;;;;;;;;;;;;;;;-1.40;100.00;96276.11;110317;1242;68602;-66
2024/01/16 06:42:00;;;;;;;;;;;;;;;-1.41;100.00;96278.38;110369;1242;69911;-66
2024/01/16 06:44:30;;;;;;;;;;;;;;;-1.42;100.00;96284.23;110571;1246;60495;-66
2024/01/16 06:46:59;;;;;;;;;;;;;;;-1.44;100.00;96289.27;110581;1242;60505;-66
2024/01/16 06:49:29;;;;;;;;;;;;;;;-1.48;100.00;96297.47;110434;1242;72257;-65
2024/01/16 06:51:58;;;;;;;;;;;;;;;-1.46;100.00;96298.41;110443;1243;68488;-67
2024/01/16 06:54:27;;;;;;;;;;;;;;;-1.46;100.00;96301.48;110619;1240;69781;-66
2024/01/16 06:56:56;;;;;;;;;;;;;;;-1.49;100.00;96307.98;110434;1241;60450;-68
2024/01/16 06:59:25;;;;;;;;;;;;;;;-1.49;100.00;96313.92;110505;1244;60486;-67
2024/01/16 07:01:55;;;;;;;;;;;;;;;-1.45;100.00;96316.66;110536;1238;71558;-67
2024/01/16 07:04:24;;;;;;;;;;;;;;;-1.42;100.00;96319.44;110508;1241;69393;-65
2024/01/16 07:06:54;;;;;;;;;;;;;;;-1.43;100.00;96321.86;110512;1238;68501;-59
2024/01/16 07:09:23;;;;;;;;;;;;;;;-1.42;100.00;96323.17;110430;1241;60486;-59
2024/01/16 07:11:53;;;;;;;;;;;;;;;-1.36;100.00;96326.70;110446;1241;60963;-58
2024/01/16 07:14:22;;;;;;;;;;;;;;;-1.38;100.00;96330.35;110401;1241;72718;-58
2024/01/16 07:16:51;;;;;;;;;;;;;;;-1.32;100.00;96331.63;110368;1241;69779;-59
2024/01/16 07:19:21;;;;;;;;;;;;;;;-1.28;100.00;96332.17;110477;1242;68564;-59
2024/01/16 07:21:50;;;;;;;;;;;;;;;-1.28;100.00;96337.46;110472;1241;60476;-58
2024/01/16 07:24:20;;;;;;;;;;;;;;;-1.20;100.00;96340.89;110572;1241;60515;-57
2024/01/16 07:26:49;;;;;;;;;;;;;;;-1.18;100.00;96352.92;110347;1242;71534;-55
2024/01/16 07:29:19;;;;;;;;;;;;;;;-1.18;100.00;96359.94;110367;1241;69827;-58
2024/01/16 07:31:49;;;;;;;;;;;;;;;-1.13;100.00;96364.32;110368;1242;69302;-58
2024/01/16 07:34:21;;;;;;;;;;;;;;;-1.12;100.00;96366.51;110417;1242;60473;-58
2024/01/16 07:36:51;;;;;;;;;;;;;;;-1.08;100.00;96371.65;110206;1245;60484;-58
2024/01/16 07:39:22;;;;;;;;;;;;;;;-1.08;100.00;96373.88;110423;1242;72255;-58
2024/01/16 07:41:51;;;;;;;;;;;;;;;-1.02;100.00;96379.58;110363;1241;70327;-57
2024/01/16 07:44:21;;;;;;;;;;;;;;;-0.95;100.00;96379.80;110360;1242;69824;-58
2024/01/16 07:46:50;;;;;;;;;;;;;;;-0.92;100.00;96382.60;110457;1241;60538;-58
2024/01/16 07:49:19;;;;;;;;;;;;;;;-0.82;100.00;96386.24;110464;1242;60527;-57
2024/01/16 07:51:48;;;;;;;;;;;;;;;-0.73;100.00;96388.94;110453;1242;72182;-57
2024/01/16 07:54:17;;;;;;;;;;;;;;;-0.71;100.00;96393.63;110384;1241;68443;-57
2024/01/16 07:56:47;;;;;;;;;;;;;;;-0.64;100.00;96392.96;110445;1241;69401;-59
2024/01/16 07:59:17;;;;;;;;;;;;;;;-0.56;100.00;96397.92;110430;1241;60525;-58
2024/01/16 08:01:46;;;;;;;;;;;;;;;-0.55;100.00;96401.65;110345;1242;60528;-58
2024/01/16 08:04:16;;;;;;;;;;;;;;;-0.45;100.00;96402.75;110490;1242;72563;-59
2024/01/16 08:06:46;;;;;;;;;;;;;;;-0.31;100.00;96408.79;110494;1242;69859;-59
2024/01/16 08:09:15;;;;;;;;;;;;;;;-0.27;100.00;96411.52;110380;1245;69717;-60
2024/01/16 08:11:45;;;;;;;;;;;;;;;-0.15;100.00;96417.49;110442;1242;60526;-60
2024/01/16 08:14:15;;;;;;;;;;;;;;;-0.16;100.00;96419.06;110558;1241;60476;-58
2024/01/16 08:16:44;;;;;;;;;;;;;;;-0.10;100.00;96424.94;110533;1241;72752;-57
2024/01/16 08:19:15;;;;;;;;;;;;;;;-0.04;100.00;96432.41;110563;1242;69282;-59
2024/01/16 08:21:45;;;;;;;;;;;;;;;-0.14;100.00;96434.75;110377;1242;69987;-57
2024/01/16 08:24:14;;;;;;;;;;;;;;;-0.14;100.00;96439.20;110362;1242;60585;-58
2024/01/16 08:26:43;;;;;;;;;;;;;;;-0.18;100.00;96445.35;110516;1242;60549;-58
2024/01/16 08:29:13;;;;;;;;;;;;;;;-0.25;100.00;96445.70;110504;1242;72814;-57
2024/01/16 08:31:42;;;;;;;;;;;;;;;-0.25;100.00;96448.25;110372;1241;69241;-58
2024/01/16 08:34:11;;;;;;;;;;;;;;;-0.33;100.00;96454.63;110358;1248;69807;-58
2024/01/16 08:36:43;;;;;;;;;;;;;;;-0.35;100.00;96456.73;110144;1243;60907;-59
2024/01/16 08:39:13;;;;;;;;;;;;;;;-0.32;100.00;96462.77;110353;1241;60460;-57
2024/01/16 08:41:42;;;;;;;;;;;;;;;-0.33;100.00;96468.96;110433;1242;72146;-55
2024/01/16 08:44:14;;;;;;;;;;;;;;;-0.37;100.00;96470.52;110510;1242;68595;-56
2024/01/16 08:46:44;;;;;;;;;;;;;;;-0.33;100.00;96475.64;110413;1239;69057;-57
2024/01/16 08:49:13;;;;;;;;;;;;;;;-0.23;100.00;96477.29;110480;1242;60511;-58
2024/01/16 08:51:48;;;;;;;;;;;;;;;-0.18;100.00;96478.59;110582;1242;60488;-58
2024/01/16 08:54:17;;;;;;;;;;;;;;;-0.05;100.00;96483.46;110482;1241;73381;-58
2024/01/16 08:56:46;;;;;;;;;;;;;;;0.04;100.00;96493.16;110392;1244;68338;-59
2024/01/16 08:59:16;;;;;;;;;;;;;;;0.15;100.00;96491.47;110428;1240;69882;-59
2024/01/16 09:01:45;;;;;;;;;;;;;;;0.29;100.00;96493.05;110531;1241;60487;-58
2024/01/16 09:04:14;;;;;;;;;;;;;;;0.37;100.00;96497.64;110456;1241;60486;-59
2024/01/16 09:06:44;;;;;;;;;;;;;;;0.54;100.00;96500.30;110556;1241;72949;-58
2024/01/16 09:09:13;;;;;;;;;;;;;;;0.56;100.00;96508.05;110461;1239;69124;-58
2024/01/16 09:11:42;;;;;;;;;;;;;;;0.67;100.00;96510.48;110350;1242;69859;-58
2024/01/16 09:14:11;;;;;;;;;;;;;;;0.78;100.00;96513.03;110413;1244;60478;-59
2024/01/16 09:16:41;;;;;;;;;;;;;;;0.92;100.00;96505.14;110515;1248;60440;-58
2024/01/16 09:19:10;;;;;;;;;;;;;;;1.08;100.00;96507.80;110392;1241;71345;-58
2024/01/16 09:21:39;;;;;;;;;;;;;;;1.11;99.99;96504.88;110401;1241;69192;-59
2024/01/16 09:24:09;;;;;;;;;;;;;;;0.85;100.00;96513.34;110466;1241;69857;-59
2024/01/16 09:26:38;;;;;;;;;;;;;;;1.41;100.00;96515.05;110475;1241;60497;-59
2024/01/16 09:29:09;;;;;;;;;;;;;;;1.85;98.06;96516.93;110326;1241;60484;-59
2024/01/16 09:31:38;;;;;;;;;;;;;;;1.79;95.08;96516.35;110551;1241;71527;-58
2024/01/16 09:34:08;;;;;;;;;;;;;;;1.98;99.41;96515.04;110524;1238;69190;-59
2024/01/16 09:36:38;;;;;;;;;;;;;;;2.05;98.26;96524.30;110192;1244;68582;-59
2024/01/16 09:39:08;;;;;;;;;;;;;;;1.87;98.28;96525.07;110368;1238;60548;-58
2024/01/16 09:41:42;;;;;;;;;;;;;;;1.83;96.28;96523.73;110484;1241;60491;-59
2024/01/16 09:44:12;;;;;;;;;;;;;;;1.52;93.75;96523.23;110453;1241;70464;-58
2024/01/16 09:46:46;;;;;;;;;;;;;;;1.42;94.38;96525.16;110523;1241;69799;-59
2024/01/16 09:49:16;;;;;;;;;;;;;;;1.38;88.61;96529.33;110477;1239;69214;-58
2024/01/16 09:51:46;;;;;;;;;;;;;;;1.69;93.55;96533.06;110473;1238;60564;-58
2024/01/16 09:54:16;;;;;;;;;;;;;;;1.98;92.77;96531.38;110489;1241;60485;-58
2024/01/16 09:56:47;;;;;;;;;;;;;;;2.02;89.42;96535.10;110419;1241;72984;-58
2024/01/16 09:59:20;;;;;;;;;;;;;;;2.06;91.45;96533.52;110481;1241;69687;-57
2024/01/16 10:01:51;;;;;;;;;;;;;;;2.41;92.31;96534.23;110476;1241;69168;-59
2024/01/16 10:04:20;;;;;;;;;;;;;;;3.00;86.20;96538.86;110439;1248;60447;-58
2024/01/16 10:06:51;;;;;;;;;;;;;;;2.97;81.09;96537.49;110495;1241;60475;-59
2024/01/16 10:09:21;;;;;;;;;;;;;;;3.05;83.71;96541.52;110526;1241;72577;-59
2024/01/16 10:11:50;;;;;;;;;;;;;;;2.71;79.70;96543.06;110386;1241;69102;-57
2024/01/16 10:14:19;;;;;;;;;;;;;;;2.70;82.48;96545.20;110428;1238;69876;-59
2024/01/16 10:16:58;;;;;;;;;;;;;;;2.51;80.05;96549.85;110466;1240;60945;-58
2024/01/16 10:19:27;;;;;;;;;;;;;;;2.19;79.92;96551.40;110500;1238;60570;-58
2024/01/16 10:22:13;;;;;;;;;;;;;;;1.69;82.74;96553.79;110495;1241;72001;-59
2024/01/16 10:24:42;;;;;;;;;;;;;;;1.67;81.94;96549.80;110504;1241;69858;-61
2024/01/16 10:27:15;;;;;;;;;;;;;;;1.58;83.28;96547.00;110339;1242;69895;-60
2024/01/16 10:29:57;;;;;;;;;;;;;;;1.46;83.65;96552.75;110427;1248;60564;-56
2024/01/16 10:32:28;;;;;;;;;;;;;;;1.97;82.24;96549.46;110493;1241;60446;-59
2024/01/16 10:35:08;;;;;;;;;;;;;;;1.97;84.15;96548.60;110455;1238;71615;-60
2024/01/16 10:37:42;;;;;;;;;;;;;;;2.15;82.96;96547.30;110448;1241;68447;-60
2024/01/16 10:40:14;;;;;;;;;;;;;;;2.01;82.83;96554.60;110387;1241;69924;-60
2024/01/16 10:42:46;;;;;;;;;;;;;;;2.06;85.70;96555.52;110479;1241;60569;-58
2024/01/16 10:45:18;;;;;;;;;;;;;;;2.10;86.13;96556.31;110753;1239;60488;-60
2024/01/16 10:48:09;;;;;;;;;;;;;;;2.16;83.35;96552.61;110641;1241;72658;-61
2024/01/16 10:50:39;;;;;;;;;;;;;;;2.13;85.07;96561.02;110627;1241;69257;-60
2024/01/16 10:53:09;;;;;;;;;;;;;;;2.23;84.13;96561.34;110488;1241;69147;-60
2024/01/16 10:55:43;;;;;;;;;;;;;;;2.04;80.59;96560.24;110627;1244;60506;-58
2024/01/16 10:58:13;;;;;;;;;;;;;;;2.04;81.98;96558.55;110384;1240;60545;-57
2024/01/16 11:00:43;;;;;;;;;;;;;;;2.55;83.42;96558.71;110591;1238;72691;-61
2024/01/16 11:03:18;;;;;;;;;;;;;;;3.32;82.81;96553.73;110585;1241;69666;-57
2024/01/16 11:05:47;;;;;;;;;;;;;;;4.58;80.20;96555.01;110191;1240;410666;-58
2024/01/16 11:08:17;;;;;;;;;;;;;;;5.82;68.70;96553.86;110519;1240;60586;-59
2024/01/16 11:10:48;;;;;;;;;;;;;;;7.01;61.58;96551.10;110630;1242;60431;-59
2024/01/16 11:13:18;;;;;;;;;;;;;;;8.19;60.12;96555.22;110420;1240;72620;-59
2024/01/16 11:15:48;;;;;;;;;;;;;;;8.39;54.81;96552.66;110459;1240;68757;-61
2024/01/16 11:18:17;;;;;;;;;;;;;;;9.24;55.69;96556.33;110518;1238;69250;-59
2024/01/16 11:20:47;;;;;;;;;;;;;;;9.55;53.46;96559.34;110442;1239;60405;-58
2024/01/16 11:23:34;;;;;;;;;;;;;;;10.09;51.48;96560.43;110386;1242;60888;-59
2024/01/16 11:26:22;;;;;;;;;;;;;;;10.72;50.81;96566.52;110564;1238;71995;-60
2024/01/16 11:28:59;;;;;;;;;;;;;;;10.54;47.48;96564.48;110485;1240;69126;-60
2024/01/16 11:31:30;;;;;;;;;;;;;;;8.14;48.96;96569.41;110487;1241;70039;-60
2024/01/16 11:34:01;;;;;;;;;;;;;;;7.82;50.73;96570.82;110402;1241;60547;-60
2024/01/16 11:36:46;;;;;;;;;;;;;;;7.60;52.90;96573.70;110476;1238;60523;-59
2024/01/16 11:39:19;;;;;;;;;;;;;;;6.79;54.13;96583.75;110490;1238;72011;-60
2024/01/16 11:41:48;;;;;;;;;;;;;;;5.95;57.16;96585.71;110372;1241;69632;-58
2024/01/16 11:44:38;;;;;;;;;;;;;;;6.22;57.05;96589.94;110387;1242;68338;-60
2024/01/16 11:47:08;;;;;;;;;;;;;;;5.15;60.53;96594.41;110339;1241;60502;-59
2024/01/16 11:49:40;;;;;;;;;;;;;;;4.12;64.57;96601.75;110382;1242;60897;-59
2024/01/16 11:52:11;;;;;;;;;;;;;;;3.53;67.81;96604.24;110392;1242;72603;-60
2024/01/16 11:54:41;;;;;;;;;;;;;;;3.48;68.93;96608.63;110496;1240;69259;-60
2024/01/16 11:57:19;;;;;;;;;;;;;;;2.73;73.20;96608.88;110450;1239;70259;-58
2024/01/16 12:00:00;;;;;;;;;;;;;;;2.80;73.52;96607.46;110395;1238;60593;-60
2024/01/16 12:02:49;;;;;;;;;;;;;;;2.67;75.14;96605.09;110447;1240;60937;-60
2024/01/16 12:05:18;;;;;;;;;;;;;;;2.29;75.84;96608.99;110510;1240;72669;-58
2024/01/16 12:07:51;;;;;;;;;;;;;;;2.23;77.17;96609.29;110469;1239;69031;-59
2024/01/16 12:10:21;;;;;;;;;;;;;;;2.14;78.92;96613.55;110497;1239;68150;-59
2024/01/16 12:12:51;;;;;;;;;;;;;;;2.12;78.90;96615.75;110547;1240;60490;-60
2024/01/16 12:15:21;;;;;;;;;;;;;;;2.00;78.65;96621.13;110531;1240;60527;-58
2024/01/16 12:17:54;;;;;;;;;;;;;;;1.92;78.88;96620.34;110655;1241;72739;-59
2024/01/16 12:20:25;;;;;;;;;;;;;;;1.53;82.47;96625.73;110498;1242;70056;-60
2024/01/16 12:22:54;;;;;;;;;;;;;;;1.70;81.09;96631.05;110638;1239;69261;-59
2024/01/16 12:25:24;;;;;;;;;;;;;;;1.72;83.35;96634.05;110575;1240;60544;-58
2024/01/16 12:28:19;;;;;;;;;;;;;;;1.84;83.32;96633.30;110624;1241;60459;-59
2024/01/16 12:31:00;;;;;;;;;;;;;;;1.83;83.35;96626.32;110522;1241;72905;-61
2024/01/16 12:33:30;;;;;;;;;;;;;;;1.73;83.50;96625.09;110497;1248;69825;-60
2024/01/16 12:36:03;;;;;;;;;;;;;;;1.71;83.84;96630.02;110445;1241;69904;-60
2024/01/16 12:38:35;;;;;;;;;;;;;;;1.75;83.94;96632.86;110520;1240;60493;-58
2024/01/16 12:41:08;;;;;;;;;;;;;;;1.77;84.35;96633.64;110622;1241;60475;-60
2024/01/16 12:43:37;;;;;;;;;;;;;;;1.90;82.90;96634.55;110567;1240;71386;-56
2024/01/16 12:46:11;;;;;;;;;;;;;;;1.95;82.67;96630.35;110504;1241;69909;-58
2024/01/16 12:48:39;;;;;;;;;;;;;;;1.97;83.27;96638.33;110579;1242;69232;-58
2024/01/16 12:51:23;;;;;;;;;;;;;;;1.97;83.88;96642.93;110579;1240;60511;-58
2024/01/16 12:53:52;;;;;;;;;;;;;;;1.98;84.14;96643.23;110554;1241;60469;-58
2024/01/16 12:56:22;;;;;;;;;;;;;;;2.04;84.87;96639.14;110426;1240;72592;-57